Time;durP1;ratioP1;P1;durP2;ratioP2;P2;SDS_P1;SDS_P2;PMS_P1;PMS_P2;Temp;Humidity;BMP_temperature;BMP_pressure;BME280_temperature;BME280_humidity;BME280_pressure;Samples;Min_cycle;Max_cycle;Signal;HPM_P1;HPM_P2
2022/06/05 00:02:32;;;;;;;55.65;52.72;;;;;;;25.60;38.73;101580.06;5110389;28;20435;-75
2022/06/05 00:05:21;;;;;;;53.65;50.85;;;;;;;25.58;39.38;101567.72;5112018;28;20035;-76
2022/06/05 00:08:06;;;;;;;56.10;53.20;;;;;;;25.56;39.57;101561.69;5104893;28;20035;-74
2022/06/05 00:10:36;;;;;;;54.67;51.92;;;;;;;25.54;39.65;101547.34;5109622;28;20115;-74
2022/06/05 00:13:26;;;;;;;50.92;48.33;;;;;;;25.53;39.41;101548.47;5110924;28;20035;-76
2022/06/05 00:15:52;;;;;;;53.70;50.90;;;;;;;25.52;39.55;101547.66;5103227;28;20537;-76
2022/06/05 00:18:17;;;;;;;52.75;50.03;;;;;;;25.52;39.65;101539.38;5099202;28;20536;-76
2022/06/05 00:20:44;;;;;;;52.28;49.55;;;;;;;25.52;39.37;101539.38;5110079;28;20035;-77
2022/06/05 00:23:10;;;;;;;52.33;49.72;;;;;;;25.53;39.76;101529.09;5109294;28;20023;-76
2022/06/05 00:25:47;;;;;;;51.17;48.53;;;;;;;25.53;39.61;101526.34;5110086;28;20038;-75
2022/06/05 00:28:15;;;;;;;52.42;49.53;;;;;;;25.51;39.85;101512.84;5110930;28;20035;-75
2022/06/05 00:30:44;;;;;;;51.90;49.20;;;;;;;25.50;39.62;101513.16;5111036;28;20038;-74
2022/06/05 00:33:12;;;;;;;;;;;;;;;25.45;39.47;101503.91;5111229;28;20036;-75
2022/06/05 00:35:51;;;;;;;53.95;51.22;;;;;;;25.42;39.99;101499.00;5108587;28;19985;-75
2022/06/05 00:38:40;;;;;;;54.45;51.55;;;;;;;25.39;39.67;101496.91;5099304;28;20036;-76
2022/06/05 00:41:42;;;;;;;50.10;47.40;;;;;;;25.34;39.79;101508.13;5093006;28;20154;-75
2022/06/05 00:44:11;;;;;;;53.22;50.40;;;;;;;25.31;39.88;101510.75;5106983;28;20038;-75
2022/06/05 00:46:37;;;;;;;55.70;52.53;;;;;;;25.28;39.77;101511.38;5096476;28;20531;-75
2022/06/05 00:49:04;;;;;;;51.00;48.10;;;;;;;25.22;39.86;101511.56;5109613;28;20519;-74
2022/06/05 00:51:29;;;;;;;53.10;49.88;;;;;;;25.19;40.04;101522.44;5101889;28;20383;-81
2022/06/05 00:53:54;;;;;;;53.38;50.35;;;;;;;25.16;40.24;101536.88;5098396;28;20056;-74
2022/06/05 00:56:20;;;;;;;49.40;46.78;;;;;;;25.13;39.96;101567.94;5103949;28;20036;-75
2022/06/05 00:58:45;;;;;;;51.38;48.58;;;;;;;25.12;40.32;101578.16;5109019;28;20483;-75
2022/06/05 01:01:12;;;;;;;49.58;46.85;;;;;;;25.12;40.31;101589.22;5110501;28;20043;-76
2022/06/05 01:03:37;;;;;;;53.80;51.00;;;;;;;25.12;39.91;101582.88;5107573;28;20138;-74
2022/06/05 01:06:04;;;;;;;53.25;50.45;;;;;;;25.13;39.91;101592.81;5114288;28;20119;-74
2022/06/05 01:08:29;;;;;;;52.08;48.92;;;;;;;25.13;40.14;101604.69;5111377;28;20112;-76
2022/06/05 01:11:04;;;;;;;51.40;48.60;;;;;;;25.12;40.15;101616.84;5108794;28;20066;-75
2022/06/05 01:13:35;;;;;;;53.03;50.20;;;;;;;25.12;40.07;101624.34;5113893;28;20066;-77
2022/06/05 01:16:09;;;;;;;54.35;51.30;;;;;;;25.11;40.26;101608.91;5111087;28;20031;-75
2022/06/05 01:18:47;;;;;;;49.67;47.13;;;;;;;25.09;40.64;101548.38;5114077;28;20047;-76
2022/06/05 01:21:32;;;;;;;;;;;;;;;25.07;39.93;101570.00;5115029;28;20054;-75
2022/06/05 01:24:28;;;;;;;49.22;46.63;;;;;;;25.05;40.26;101589.69;5114368;28;19920;-76
2022/06/05 01:27:00;;;;;;;49.28;46.58;;;;;;;25.02;40.20;101559.09;5114562;28;20032;-75
2022/06/05 01:29:33;;;;;;;52.53;49.45;;;;;;;25.01;40.61;101574.88;5114901;28;20023;-76
2022/06/05 01:32:06;;;;;;;51.33;48.33;;;;;;;25.00;40.45;101569.69;5104585;28;20032;-75
2022/06/05 01:34:37;;;;;;;50.42;47.83;;;;;;;24.99;40.56;101565.28;5106616;28;20036;-75
2022/06/05 01:37:16;;;;;;;52.95;50.13;;;;;;;24.97;40.88;101557.31;5113538;28;20588;-76
2022/06/05 01:40:11;;;;;;;49.33;46.63;;;;;;;24.95;40.55;101550.47;5114005;28;20520;-75
2022/06/05 01:42:41;;;;;;;50.50;47.88;;;;;;;24.93;40.41;101553.56;5113209;28;20023;-77
2022/06/05 01:45:39;;;;;;;52.05;49.10;;;;;;;24.91;41.03;101552.25;5109313;28;20540;-76
2022/06/05 01:48:09;;;;;;;50.83;48.05;;;;;;;24.89;40.71;101551.75;5094988;28;20047;-75
2022/06/05 01:50:46;;;;;;;51.47;48.78;;;;;;;24.88;41.18;101550.13;5113669;28;20028;-79
2022/06/05 01:53:19;;;;;;;50.97;48.38;;;;;;;24.84;40.93;101536.94;5104358;28;20031;-75
2022/06/05 01:55:51;;;;;;;52.58;49.85;;;;;;;24.83;41.03;101532.56;5113571;28;20128;-75
2022/06/05 01:58:21;;;;;;;49.25;46.45;;;;;;;24.81;41.69;101537.59;5114507;28;20031;-75
2022/06/05 02:00:54;;;;;;;52.55;49.70;;;;;;;24.79;41.47;101534.31;5114869;28;20073;-76
2022/06/05 02:03:28;;;;;;;52.40;49.33;;;;;;;24.77;41.43;101521.97;5105534;28;20464;-76
2022/06/05 02:06:02;;;;;;;50.13;46.95;;;;;;;24.75;42.21;101508.47;5111104;28;20059;-76
2022/06/05 02:08:48;;;;;;;51.63;48.85;;;;;;;24.73;41.62;101494.16;5094389;28;20097;-75
2022/06/05 02:11:21;;;;;;;51.95;49.08;;;;;;;24.71;42.09;101471.56;5097952;28;20456;-75
2022/06/05 02:14:08;;;;;;;53.15;49.90;;;;;;;24.69;41.90;101445.41;5102285;28;20480;-75
2022/06/05 02:16:36;;;;;;;49.95;47.10;;;;;;;24.66;41.95;101435.81;5112172;28;20040;-75
2022/06/05 02:19:04;;;;;;;51.65;48.88;;;;;;;24.65;41.85;101433.38;5113507;28;20051;-75
2022/06/05 02:21:32;;;;;;;51.78;48.97;;;;;;;24.64;42.02;101421.50;5106291;28;20109;-76
2022/06/05 02:23:58;;;;;;;51.25;48.45;;;;;;;24.60;42.13;101406.72;5101591;28;20154;-75
2022/06/05 02:26:23;;;;;;;49.05;46.33;;;;;;;24.58;42.14;101398.75;5104954;28;20034;-75
2022/06/05 02:28:49;;;;;;;51.03;48.33;;;;;;;24.57;42.39;101399.09;5107433;28;20035;-75
2022/06/05 02:31:31;;;;;;;50.83;48.08;;;;;;;24.55;42.41;101396.63;5095422;28;20733;-75
2022/06/05 02:34:11;;;;;;;50.17;47.15;;;;;;;24.53;42.35;101385.09;5104751;28;20028;-75
2022/06/05 02:36:57;;;;;;;49.92;47.05;;;;;;;24.51;42.24;101384.59;5094305;28;20028;-83
2022/06/05 02:39:41;;;;;;;48.33;45.67;;;;;;;24.48;41.92;101382.47;5101938;28;20028;-75
2022/06/05 02:42:12;;;;;;;47.75;45.03;;;;;;;24.45;41.99;101387.81;5111885;28;20023;-75
2022/06/05 02:45:11;;;;;;;48.70;46.00;;;;;;;24.44;42.08;101419.31;5111773;28;20043;-83
2022/06/05 02:47:37;;;;;;;48.17;45.58;;;;;;;24.39;42.00;101432.13;5071106;28;20402;-80
2022/06/05 02:50:33;;;;;;;49.13;46.42;;;;;;;24.37;42.34;101423.34;5101117;28;20475;-74
2022/06/05 02:53:01;;;;;;;49.67;46.67;;;;;;;24.35;42.74;101413.75;5083444;28;20215;-76
2022/06/05 02:55:27;;;;;;;49.28;46.45;;;;;;;24.33;42.25;101404.97;5112096;28;20047;-75
2022/06/05 02:57:52;;;;;;;48.45;45.75;;;;;;;24.31;42.91;101401.72;5103445;28;20070;-75
2022/06/05 03:00:24;;;;;;;47.33;44.65;;;;;;;24.28;42.90;101386.59;5103464;28;20120;-74
2022/06/05 03:05:34;;;;;;;49.88;47.10;;;;;;;24.23;42.97;101381.22;5110130;28;20127;-76
2022/06/05 03:08:00;;;;;;;49.80;46.97;;;;;;;24.21;42.60;101372.44;5106934;28;20058;-75
2022/06/05 03:10:26;;;;;;;49.25;46.45;;;;;;;24.20;42.81;101370.84;5111672;28;20034;-75
2022/06/05 03:12:52;;;;;;;47.20;44.67;;;;;;;24.18;42.85;101367.56;5095279;28;20122;-76
2022/06/05 03:15:18;;;;;;;49.17;46.35;;;;;;;24.16;43.21;101365.13;5104232;28;20055;-75
2022/06/05 03:17:44;;;;;;;49.22;46.63;;;;;;;24.14;43.15;101359.13;5111016;28;20093;-76
2022/06/05 03:20:12;;;;;;;49.47;46.72;;;;;;;24.11;43.19;101357.00;5110469;28;20055;-75
2022/06/05 03:22:38;;;;;;;46.20;43.80;;;;;;;24.09;42.89;101362.03;5112704;28;20035;-76
2022/06/05 03:25:04;;;;;;;47.58;44.97;;;;;;;24.07;42.83;101353.25;5111674;28;20043;-76
2022/06/05 03:27:30;;;;;;;45.63;43.22;;;;;;;24.05;43.20;101351.97;5109169;28;20035;-75
2022/06/05 03:29:56;;;;;;;48.42;45.72;;;;;;;24.03;42.85;101352.25;5110779;28;20045;-75
2022/06/05 03:32:22;;;;;;;49.45;46.67;;;;;;;24.01;43.10;101357.28;5112384;28;20032;-76
2022/06/05 03:34:48;;;;;;;48.03;45.35;;;;;;;23.99;42.87;101345.78;5092820;28;20042;-76
2022/06/05 03:37:13;;;;;;;47.92;45.33;;;;;;;23.96;43.27;101347.22;5103951;28;20024;-75
2022/06/05 03:39:39;;;;;;;47.60;45.00;;;;;;;23.93;42.93;101334.03;5112104;28;20039;-74
2022/06/05 03:42:06;;;;;;;47.53;44.83;;;;;;;23.91;43.29;101344.59;5111349;28;20126;-75
2022/06/05 03:44:36;;;;;;;46.93;44.20;;;;;;;23.89;43.24;101335.00;5110706;28;20390;-74
2022/06/05 03:47:01;;;;;;;50.47;47.53;;;;;;;23.87;43.46;101345.56;5107964;28;20053;-75
2022/06/05 03:49:27;;;;;;;46.25;43.72;;;;;;;23.84;43.42;101352.53;5093786;28;20043;-74
2022/06/05 03:51:53;;;;;;;47.47;44.72;;;;;;;23.82;42.97;101353.97;5101859;28;20119;-75
2022/06/05 03:54:18;;;;;;;46.75;44.20;;;;;;;23.80;42.84;101345.19;5112050;27;20115;-76
2022/06/05 03:56:44;;;;;;;47.45;44.85;;;;;;;23.77;43.27;101346.66;5073875;28;20128;-82
2022/06/05 03:59:09;;;;;;;45.13;42.70;;;;;;;23.75;43.16;101352.47;5111453;28;20043;-75
2022/06/05 04:01:34;;;;;;;47.72;45.03;;;;;;;23.73;42.97;101346.44;5112049;28;20039;-75
2022/06/05 04:04:00;;;;;;;48.78;45.72;;;;;;;23.70;43.31;101347.06;5110957;28;20417;-76
2022/06/05 04:06:28;;;;;;;45.65;42.92;;;;;;;23.69;43.39;101352.91;5099198;28;20042;-75
2022/06/05 04:08:57;;;;;;;46.72;44.10;;;;;;;23.67;42.97;101355.16;5109348;28;20035;-76
2022/06/05 04:11:24;;;;;;;44.58;42.17;;;;;;;23.66;42.85;101356.28;5110731;28;20042;-76
2022/06/05 04:13:49;;;;;;;45.75;43.05;;;;;;;23.62;42.86;101353.34;5111576;28;20081;-76
2022/06/05 04:16:20;;;;;;;46.10;43.70;;;;;;;23.60;43.00;101352.84;5097749;28;20541;-74
2022/06/05 04:18:46;;;;;;;45.45;42.75;;;;;;;23.59;43.23;101353.19;5105574;28;20055;-84
2022/06/05 04:21:15;;;;;;;44.80;42.20;;;;;;;23.57;43.20;101344.41;5103513;28;20035;-75
2022/06/05 04:23:41;;;;;;;44.08;41.65;;;;;;;23.54;43.17;101341.16;5111879;28;20047;-76
2022/06/05 04:26:11;;;;;;;44.17;41.78;;;;;;;23.53;42.85;101331.22;5110144;28;20095;-75
2022/06/05 04:28:38;;;;;;;45.42;43.00;;;;;;;23.51;43.12;101327.16;5110496;28;20032;-75
2022/06/05 04:31:03;;;;;;;46.55;43.88;;;;;;;23.50;42.79;101325.53;5110743;28;20035;-76
2022/06/05 04:33:31;;;;;;;43.95;41.65;;;;;;;23.48;43.30;101325.03;5111587;28;20398;-75
2022/06/05 04:35:57;;;;;;;44.40;41.95;;;;;;;23.45;43.27;101320.97;5101316;28;20043;-75
2022/06/05 04:38:23;;;;;;;45.85;43.35;;;;;;;23.43;43.19;101322.41;5109314;28;20524;-75
2022/06/05 04:40:48;;;;;;;45.17;42.67;;;;;;;23.41;42.98;101316.41;5112099;28;20467;-84
2022/06/05 04:43:13;;;;;;;45.58;42.90;;;;;;;23.39;43.10;101321.44;5115759;27;20038;-76
2022/06/05 04:45:42;;;;;;;44.88;42.47;;;;;;;23.36;43.12;101309.09;5114217;28;20031;-77
2022/06/05 04:48:10;;;;;;;44.92;42.33;;;;;;;23.33;43.05;101310.53;5115064;28;20121;-75
2022/06/05 04:50:35;;;;;;;44.45;41.95;;;;;;;23.30;43.16;101300.13;5113709;28;20463;-78
2022/06/05 04:53:01;;;;;;;46.08;43.47;;;;;;;23.28;42.92;101312.59;5114512;28;20032;-75
2022/06/05 04:55:26;;;;;;;43.80;41.50;;;;;;;23.25;43.03;101307.72;5115557;28;20416;-75
2022/06/05 04:57:52;;;;;;;43.30;40.88;;;;;;;23.23;43.23;101308.03;5115441;28;20024;-76
2022/06/05 05:00:17;;;;;;;46.40;43.47;;;;;;;23.21;43.42;101313.06;5105705;28;20222;-75
2022/06/05 05:02:43;;;;;;;42.20;39.80;;;;;;;23.17;43.35;101314.81;5114055;28;20027;-77
2022/06/05 05:05:08;;;;;;;44.40;41.45;;;;;;;23.14;43.22;101318.19;5110754;28;20043;-75
2022/06/05 05:07:35;;;;;;;45.20;42.80;;;;;;;23.10;43.08;101309.72;5113949;28;20028;-76
2022/06/05 05:10:00;;;;;;;44.00;41.53;;;;;;;23.06;43.10;101317.00;5111791;28;20032;-75
2022/06/05 05:12:26;;;;;;;43.53;40.92;;;;;;;23.04;43.10;101316.50;5114746;28;20035;-76
2022/06/05 05:14:53;;;;;;;44.55;42.15;;;;;;;23.02;43.50;101321.50;5114959;27;20081;-76
2022/06/05 05:17:18;;;;;;;45.08;42.75;;;;;;;23.01;43.38;101327.34;5113109;28;20028;-75
2022/06/05 05:19:44;;;;;;;45.70;43.00;;;;;;;22.98;43.65;101327.94;5113973;28;20127;-77
2022/06/05 05:22:09;;;;;;;45.55;42.95;;;;;;;22.94;43.77;101332.44;5104504;28;20036;-79
2022/06/05 05:24:35;;;;;;;42.60;40.20;;;;;;;22.88;43.57;101337.22;5112646;28;20065;-75
2022/06/05 05:27:00;;;;;;;44.33;41.72;;;;;;;22.85;43.13;101322.13;5113679;28;20027;-74
2022/06/05 05:29:26;;;;;;;41.40;38.88;;;;;;;22.84;43.34;101333.50;5108633;28;20119;-75
2022/06/05 05:31:52;;;;;;;42.45;39.85;;;;;;;22.83;43.32;101331.84;5106448;28;20493;-83
2022/06/05 05:34:17;;;;;;;42.53;39.83;;;;;;;22.83;43.72;101320.81;5113465;28;20510;-75
2022/06/05 05:36:43;;;;;;;41.70;39.28;;;;;;;22.80;43.71;101327.78;5113389;28;20474;-75
2022/06/05 05:42:04;;;;;;;42.33;39.83;;;;;;;22.74;43.64;101326.28;5103239;28;20126;-83
2022/06/05 05:44:53;;;;;;;41.03;38.72;;;;;;;22.71;43.81;101324.16;5113871;28;20441;-76
2022/06/05 05:47:22;;;;;;;42.10;39.50;;;;;;;22.69;43.47;101323.63;5114397;28;20035;-75
2022/06/05 05:49:51;;;;;;;40.88;38.38;;;;;;;22.66;43.86;101316.81;5113990;28;20035;-75
2022/06/05 05:52:17;;;;;;;40.25;37.95;;;;;;;22.63;43.57;101322.94;5096627;28;20400;-75
2022/06/05 05:54:43;;;;;;;40.63;38.03;;;;;;;22.63;43.62;101316.63;5094897;28;20036;-75
2022/06/05 05:57:08;;;;;;;43.08;40.50;;;;;;;22.62;43.96;101314.97;5113470;28;20062;-75
2022/06/05 05:59:34;;;;;;;42.88;40.40;;;;;;;22.61;43.97;101313.38;5111692;28;20032;-76
2022/06/05 06:01:59;;;;;;;40.47;38.10;;;;;;;22.59;43.60;101305.41;5108478;28;20038;-76
2022/06/05 06:04:25;;;;;;;42.40;39.85;;;;;;;22.58;43.85;101292.78;5096890;27;20111;-75
2022/06/05 06:06:50;;;;;;;40.63;38.08;;;;;;;22.57;43.86;101301.34;5112874;28;20056;-76
2022/06/05 06:09:17;;;;;;;41.67;39.15;;;;;;;22.55;44.05;101285.13;5104454;28;20083;-75
2022/06/05 06:11:43;;;;;;;41.92;39.45;;;;;;;22.53;44.00;101279.13;5094101;28;20032;-75
2022/06/05 06:14:09;;;;;;;39.60;37.40;;;;;;;22.52;43.68;101277.47;5092264;28;20066;-76
2022/06/05 06:16:35;;;;;;;41.65;39.17;;;;;;;22.49;43.52;101272.59;5111324;28;20047;-75
2022/06/05 06:19:01;;;;;;;41.55;39.20;;;;;;;22.47;44.28;101263.84;5106666;28;20051;-75
2022/06/05 06:21:27;;;;;;;40.65;38.10;;;;;;;22.44;44.09;101268.03;5113884;28;20538;-74
2022/06/05 06:23:52;;;;;;;38.95;36.85;;;;;;;22.43;44.12;101268.34;5105043;28;20050;-75
2022/06/05 06:26:18;;;;;;;39.25;37.00;;;;;;;22.41;43.79;101262.34;5111153;28;20527;-77
2022/06/05 06:28:43;;;;;;;45.53;42.17;;;;;;;22.42;44.15;101272.22;5094424;28;20040;-75
2022/06/05 06:31:11;;;;;;;42.88;40.10;;;;;;;22.38;44.26;101266.53;5105127;28;20046;-75
2022/06/05 06:33:38;;;;;;;39.53;37.28;;;;;;;22.37;44.22;101270.38;5103721;28;20028;-75
2022/06/05 06:36:06;;;;;;;41.67;39.25;;;;;;;22.37;43.83;101264.88;5109203;28;20502;-76
2022/06/05 06:38:33;;;;;;;39.88;37.58;;;;;;;22.37;44.40;101270.38;5110530;28;20047;-75
2022/06/05 06:41:05;;;;;;;41.88;39.42;;;;;;;22.35;44.35;101253.38;5104058;28;20067;-81
2022/06/05 06:43:30;;;;;;;42.75;40.15;;;;;;;22.35;44.67;101249.78;5105854;28;20038;-76
2022/06/05 06:45:56;;;;;;;40.53;38.13;;;;;;;22.32;44.50;101245.72;5111802;28;20102;-75
2022/06/05 06:48:21;;;;;;;41.78;38.88;;;;;;;22.31;44.67;101237.78;5106454;28;20076;-75
2022/06/05 06:50:47;;;;;;;40.63;37.92;;;;;;;22.30;44.70;101247.16;5112018;28;20507;-76
2022/06/05 06:53:12;;;;;;;41.22;38.28;;;;;;;22.28;44.98;101228.22;5110733;28;20395;-75
2022/06/05 06:55:37;;;;;;;38.78;36.38;;;;;;;22.27;44.53;101226.56;5093230;28;20431;-75
2022/06/05 06:58:03;;;;;;;41.00;38.33;;;;;;;22.27;45.07;101225.78;5108701;28;20035;-75
2022/06/05 07:00:29;;;;;;;39.58;37.30;;;;;;;22.23;44.52;101220.09;5106509;28;20036;-76
2022/06/05 07:02:54;;;;;;;38.92;36.75;;;;;;;22.22;44.72;101221.19;5105090;28;20035;-76
2022/06/05 07:05:20;;;;;;;38.05;35.85;;;;;;;22.22;45.08;101221.19;5111379;28;20611;-75
2022/06/05 07:07:45;;;;;;;40.90;38.30;;;;;;;22.20;46.03;101238.03;5113076;28;20032;-75
2022/06/05 07:10:10;;;;;;;41.15;38.50;;;;;;;22.16;45.72;101241.66;5110973;28;20028;-78
2022/06/05 07:12:36;;;;;;;43.17;39.88;;;;;;;22.14;46.34;101232.91;5104842;28;20028;-76
2022/06/05 07:15:04;;;;;;;41.72;39.03;;;;;;;22.11;46.03;101236.28;5112605;28;20391;-82
2022/06/05 07:17:30;;;;;;;42.70;39.60;;;;;;;22.09;46.58;101224.75;5099166;28;20469;-76
2022/06/05 07:19:55;;;;;;;43.28;40.28;;;;;;;22.06;46.47;101231.69;5108688;28;20070;-76
2022/06/05 07:22:21;;;;;;;41.10;38.63;;;;;;;22.04;46.87;101226.50;5106545;28;20123;-76
2022/06/05 07:24:46;;;;;;;37.88;35.55;;;;;;;22.02;46.57;101225.19;5110994;28;20031;-77
2022/06/05 07:27:11;;;;;;;39.42;37.03;;;;;;;22.01;46.43;101218.88;5110509;28;20061;-76
2022/06/05 07:29:37;;;;;;;42.65;39.67;;;;;;;22.03;46.31;101218.56;5112509;28;20032;-75
2022/06/05 07:32:02;;;;;;;41.40;38.80;;;;;;;22.02;46.76;101219.66;5103245;28;20395;-81
2022/06/05 07:34:28;;;;;;;40.67;38.08;;;;;;;22.02;46.50;101214.16;5095153;28;20119;-76
2022/06/05 07:36:53;;;;;;;39.85;37.40;;;;;;;22.03;46.74;101213.88;5106013;28;20032;-75
2022/06/05 07:39:18;;;;;;;41.05;38.55;;;;;;;22.03;46.94;101211.13;5110249;28;20387;-76
2022/06/05 07:41:44;;;;;;;39.45;36.92;;;;;;;22.03;47.03;101202.88;5107155;28;20042;-76
2022/06/05 07:44:09;;;;;;;41.75;39.13;;;;;;;22.04;47.15;101200.94;5111244;28;20058;-76
2022/06/05 07:46:36;;;;;;;41.42;38.78;;;;;;;22.03;47.94;101197.38;5108874;28;20040;-76
2022/06/05 07:49:02;;;;;;;40.72;37.90;;;;;;;22.04;47.93;101190.72;5112092;28;20028;-75
2022/06/05 07:54:29;;;;;;;41.92;39.17;;;;;;;22.03;48.13;101194.63;5098498;28;20047;-77
2022/06/05 07:56:59;;;;;;;42.47;39.78;;;;;;;22.04;48.36;101190.72;5093750;28;20024;-75
2022/06/05 07:59:28;;;;;;;40.30;37.88;;;;;;;22.05;48.86;101191.56;5111545;28;20020;-75
2022/06/05 08:01:56;;;;;;;42.78;40.10;;;;;;;22.07;48.51;101183.00;5104056;28;20036;-77
2022/06/05 08:04:21;;;;;;;44.70;41.75;;;;;;;22.09;49.03;101173.31;5109346;28;20157;-79
2022/06/05 08:06:48;;;;;;;42.22;39.42;;;;;;;22.12;48.86;101166.38;5093467;28;20110;-76
2022/06/05 08:09:13;;;;;;;42.03;39.33;;;;;;;22.15;48.63;101168.50;5099617;28;20039;-76
2022/06/05 08:11:42;;;;;;;41.67;38.78;;;;;;;22.19;48.57;101164.84;5098788;28;20035;-76
2022/06/05 08:14:09;;;;;;;42.78;39.92;;;;;;;22.23;49.20;101156.78;5092498;28;20048;-78
2022/06/05 08:16:34;;;;;;;44.20;41.42;;;;;;;22.27;48.95;101154.22;5110460;28;20496;-76
2022/06/05 08:19:00;;;;;;;39.88;37.58;;;;;;;22.29;48.60;101147.28;5109533;28;20491;-76
2022/06/05 08:21:26;;;;;;;43.60;40.65;;;;;;;22.32;48.35;101154.91;5106232;28;20579;-76
2022/06/05 08:23:52;;;;;;;44.65;41.53;;;;;;;22.38;48.53;101150.91;5105119;28;20613;-75
2022/06/05 08:26:17;;;;;;;46.60;43.60;;;;;;;22.41;48.38;101149.47;5110910;28;20483;-76
2022/06/05 08:28:42;;;;;;;42.25;39.45;;;;;;;22.42;48.54;101146.41;5111408;28;20115;-77
2022/06/05 08:31:08;;;;;;;43.05;40.25;;;;;;;22.45;48.19;101143.03;5106079;28;20472;-81
2022/06/05 08:33:34;;;;;;;43.05;40.15;;;;;;;22.50;47.80;101147.59;5099278;28;20031;-76
2022/06/05 08:35:59;;;;;;;42.78;40.13;;;;;;;22.54;48.03;101142.28;5104005;28;20040;-75
2022/06/05 08:41:27;;;;;;;45.00;42.05;;;;;;;22.64;48.06;101150.28;5101693;28;20222;-81
2022/06/05 08:44:07;;;;;;;47.22;43.88;;;;;;;22.67;48.18;101158.72;5105822;28;20085;-74
2022/06/05 08:47:05;;;;;;;42.50;39.83;;;;;;;22.72;48.02;101143.19;5107877;28;20042;-74
2022/06/05 08:49:51;;;;;;;44.72;41.88;;;;;;;22.77;47.87;101154.09;5096392;28;20035;-76
2022/06/05 08:52:48;;;;;;;44.97;42.17;;;;;;;22.82;47.71;101146.50;5103101;28;20042;-76
2022/06/05 08:55:13;;;;;;;45.63;42.55;;;;;;;22.87;48.06;101146.34;5110182;28;20035;-76
2022/06/05 08:58:05;;;;;;;45.28;42.25;;;;;;;22.93;48.29;101148.97;5110065;28;20395;-76
2022/06/05 09:00:31;;;;;;;46.80;43.80;;;;;;;22.97;48.35;101155.50;5049433;28;20090;-75
2022/06/05 09:03:13;;;;;;;47.60;44.63;;;;;;;23.01;47.99;101148.25;5105221;28;20118;-76
2022/06/05 09:05:46;;;;;;;44.95;42.15;;;;;;;23.06;48.11;101148.13;5102728;28;20028;-77
2022/06/05 09:08:26;;;;;;;44.25;41.50;;;;;;;23.10;48.14;101149.09;5094564;28;20029;-77
2022/06/05 09:10:57;;;;;;;43.65;41.00;;;;;;;23.14;47.93;101149.28;5100591;28;20038;-76
2022/06/05 09:13:45;;;;;;;45.85;43.17;;;;;;;23.20;47.64;101154.31;5094324;28;20044;-77
2022/06/05 09:16:23;;;;;;;46.33;43.42;;;;;;;23.23;47.86;101145.41;5096028;28;20036;-77
2022/06/05 09:18:49;;;;;;;47.72;44.65;;;;;;;23.26;48.02;101146.75;5102121;28;20066;-77
2022/06/05 09:21:23;;;;;;;45.67;42.58;;;;;;;23.30;47.85;101144.97;5101668;28;20099;-79
2022/06/05 09:24:15;;;;;;;43.55;40.85;;;;;;;23.36;47.62;101151.97;5107522;28;20036;-77
2022/06/05 09:26:50;;;;;;;44.90;42.03;;;;;;;23.39;47.73;101145.81;5112920;28;20463;-75
2022/06/05 09:29:58;;;;;;;46.22;43.15;;;;;;;23.44;47.65;101144.84;5111286;28;20028;-75
2022/06/05 09:32:45;;;;;;;48.17;44.92;;;;;;;23.48;47.56;101143.06;5095683;28;20035;-75
2022/06/05 09:35:24;;;;;;;49.03;45.55;;;;;;;23.50;47.66;101141.63;5115157;28;20048;-76
2022/06/05 09:37:58;;;;;;;48.83;45.63;;;;;;;23.53;47.31;101138.22;5110733;28;20514;-76
2022/06/05 09:40:39;;;;;;;48.28;45.17;;;;;;;23.57;47.54;101132.06;5129043;27;20064;-75
2022/06/05 09:43:22;;;;;;;47.75;44.45;;;;;;;23.59;47.30;101125.09;5111309;28;20070;-74
2022/06/05 09:46:19;;;;;;;49.00;45.65;;;;;;;23.63;47.62;101128.81;5096834;28;20035;-74
2022/06/05 09:49:12;;;;;;;49.40;46.08;;;;;;;23.66;47.84;101121.84;5104656;28;20039;-76
2022/06/05 09:51:40;;;;;;;52.03;48.33;;;;;;;23.66;47.80;101119.09;5076042;28;20039;-76
2022/06/05 09:54:32;;;;;;;;;;;;;;;23.68;47.35;101114.06;5110388;28;20376;-77
2022/06/05 10:00:09;;;;;;;48.05;45.13;;;;;;;23.71;47.67;101110.66;5114392;28;20042;-76
2022/06/05 10:02:37;;;;;;;46.67;43.90;;;;;;;23.72;47.36;101113.16;5107717;28;20031;-77
2022/06/05 10:05:46;;;;;;;46.03;43.40;;;;;;;23.76;46.95;101110.53;5112705;28;20035;-78
2022/06/05 10:08:37;;;;;;;48.20;45.08;;;;;;;23.80;46.97;101105.22;5053076;28;20124;-77
2022/06/05 10:11:05;;;;;;;48.65;45.75;;;;;;;23.81;47.30;101107.63;5107138;27;20063;-77
2022/06/05 10:13:48;;;;;;;48.35;45.35;;;;;;;23.85;47.18;101107.81;5109387;28;20028;-78
2022/06/05 10:16:45;;;;;;;49.65;46.55;;;;;;;23.87;47.75;101105.53;5112092;28;20043;-78
2022/06/05 10:19:10;;;;;;;46.63;43.70;;;;;;;23.87;47.20;101109.09;5118842;27;20144;-76
2022/06/05 10:21:41;;;;;;;49.28;46.40;;;;;;;23.89;47.53;101109.59;5111707;28;20539;-77
2022/06/05 10:24:29;;;;;;;50.78;47.60;;;;;;;23.92;47.81;101113.66;5114083;28;20049;-76
2022/06/05 10:26:59;;;;;;;48.20;45.45;;;;;;;23.93;47.29;101102.28;5114157;28;20395;-72
2022/06/05 10:29:44;;;;;;;49.60;46.35;;;;;;;23.95;47.33;101093.69;5112833;28;20026;-78
2022/06/05 10:32:34;;;;;;;47.92;44.95;;;;;;;23.96;47.27;101098.91;5102586;28;20475;-78
2022/06/05 10:35:25;;;;;;;45.45;42.75;;;;;;;23.99;47.10;101102.94;5110166;28;20035;-78
2022/06/05 10:38:31;;;;;;;45.03;42.50;;;;;;;24.01;47.24;101097.09;5111445;28;20077;-77
2022/06/05 10:41:04;;;;;;;45.55;42.95;;;;;;;24.02;47.31;101095.97;5109136;28;20020;-76
2022/06/05 10:43:31;;;;;;;48.17;45.45;;;;;;;24.03;46.99;101095.63;5108377;28;20035;-76
2022/06/05 10:46:18;;;;;;;51.30;48.13;;;;;;;24.05;47.67;101104.41;5100885;28;20065;-76
2022/06/05 10:48:59;;;;;;;45.47;42.45;;;;;;;24.05;47.68;101101.63;5112174;28;20031;-78
2022/06/05 10:51:27;;;;;;;48.97;46.08;;;;;;;24.04;47.29;101102.78;5101098;28;20020;-78
2022/06/05 10:53:53;;;;;;;;;;;;;;;24.05;46.93;101098.06;5106919;28;20454;-76
2022/06/05 10:56:37;;;;;;;50.78;47.17;;;;;;;24.06;47.38;101103.25;5098135;28;19947;-77
2022/06/05 10:59:16;;;;;;;45.08;42.53;;;;;;;24.07;47.57;101099.38;5113514;28;20022;-79
2022/06/05 11:01:47;;;;;;;47.95;44.88;;;;;;;24.08;47.46;101098.22;5111323;28;20394;-77
2022/06/05 11:04:22;;;;;;;45.92;43.22;;;;;;;24.09;47.24;101104.53;5111423;28;20031;-77
2022/06/05 11:07:12;;;;;;;45.22;42.55;;;;;;;24.10;47.00;101101.47;5113058;28;20103;-77
2022/06/05 11:09:49;;;;;;;47.25;44.55;;;;;;;24.11;47.11;101105.84;5110604;28;20028;-75
2022/06/05 11:15:39;;;;;;;47.13;44.22;;;;;;;24.13;47.05;101111.03;5100060;28;20085;-79
2022/06/05 11:18:14;;;;;;;49.70;46.05;;;;;;;24.13;47.74;101111.84;5108243;28;20034;-79
2022/06/05 11:20:42;;;;;;;47.20;44.28;;;;;;;24.14;47.99;101107.97;5098850;28;20044;-78
2022/06/05 11:23:17;;;;;;;47.10;44.20;;;;;;;24.15;48.37;101104.06;5090305;28;20054;-77
2022/06/05 11:26:38;;;;;;;47.25;44.25;;;;;;;24.16;47.89;101107.63;5095648;28;20111;-77
2022/06/05 11:29:09;;;;;;;48.53;45.63;;;;;;;24.15;47.87;101109.59;5044072;28;20028;-77
2022/06/05 11:31:56;;;;;;;48.22;45.22;;;;;;;24.15;48.25;101112.34;5088486;28;20502;-77
2022/06/05 11:34:27;;;;;;;47.80;44.77;;;;;;;24.16;48.23;101113.16;5109294;28;20035;-76
2022/06/05 11:37:08;;;;;;;47.28;44.50;;;;;;;24.16;47.74;101115.91;5111323;28;20085;-75
2022/06/05 11:40:04;;;;;;;47.13;44.20;;;;;;;24.15;47.55;101115.09;5109739;28;20084;-77
2022/06/05 11:42:37;;;;;;;49.53;46.55;;;;;;;24.15;47.66;101104.06;5110774;28;20035;-78
2022/06/05 11:45:36;;;;;;;48.30;45.20;;;;;;;24.16;47.52;101080.84;5105440;28;20027;-76
2022/06/05 11:48:16;;;;;;;48.03;45.13;;;;;;;24.15;47.48;101075.66;5097445;28;20028;-73
2022/06/05 11:51:13;;;;;;;47.30;44.28;;;;;;;24.15;47.52;101094.97;5103428;28;20051;-74